Racecast

Leikela Lunt

Castro Valley (CA) · 11 · WACCCA D1NCS D11 · Compare head to head

Athlete rating 137.1 2016 XC season
Best race 141.4 TF
Races 76
Seasons 8 2012 — 2019

RankedNation #3164·CA #1665·CA D1 #870·NCS #145·NCS D1 #713·WACC #24·Team #5 ?

Rating scale ?

Cross Country

2016 XC 129.4

Castro Valley (CA) · Grade 9

Date Meet Event Result Place Rating Difficulty PR/SR Flags
2016-11-26 Woodward Park 5000m 20:38.1 160th · 3rd on team 131.6 +0.044 ★PR ★CR SR CSR
2016-11-19 Hayward High School 4828m 20:04.3 10th · 4th on team 130.4 +0.043
2016-11-05 Hayward High School 4828m 20:06.8 22nd · 3rd on team 130.4 +0.043
2016-10-22 Mt. San Antonio College 4715m 21:32 39th · 2nd on team 128.5 +0.129 ★PR ★CR SR CSR
2016-10-12 Hayward High School 4828m 22:57.9 28th · 14th on team 113.0 +0.043 PR CR SR CSR
2016-10-12 Hayward High School 4828m 19:27.6 16th · 2nd on team 133.3 +0.043 ★PR ★CR SR CSR
2016-10-08 Canyon Middle School 3379m 15:39.1 8th · 2nd on team 127.6 +0.170
2016-10-01 Half Moon Bay High School 3749m 15:37 6th · 1st on team 131.4 +0.079 ★PR ★CR SR CSR
2016-09-15 Garin Regional Park 5000m 21:21.1 11th · 1st on team 134.2 +0.107 PR ★CR SR CSR RSR
2016-08-31 Canyon Middle School 3379m 14:49 4th · 2nd on team 133.4 +0.170 ★PR ★CR SR CSR RSR

2014 XC 89.0

Castro Valley Track (CA) · Grade 7

Date Meet Event Result Place Rating Difficulty PR/SR Flags
2014-11-23 Willow Hills Reservoir Course 2000m 12:16 6th · 1st on team 89.0 +0.010 ★PR ★CR SR CSR RSR

Track & Field

2019 TF 111.9

Castro Valley (CA) · Grade 11

Date Meet Event Result Place Rating Difficulty PR/SR Flags
2019-05-04 WACC Championship Day 2 800m 2:41.36 14th · 1st on team 113.6 -0.041
2019-04-17 WACC Tri Center Meet (CV, Ala, Berkeley) 800m 2:41.32 6th · 1st on team 113.8 -0.037 SR RSR
2019-04-11 WACC Center Meet (Arr, BOD, HHS, PHS, CV) 800m 2:48.94 6th · 1st on team 110.0 -0.030
2019-02-23 Skyline Invitational 800m 2:45.45 34th · 1st on team 110.3 -0.045 SR RSR

2018 TF 110.0

Castro Valley (CA) · Grade 10

Date Meet Event Result Place Rating Difficulty PR/SR Flags
2018-05-12 WACC Championships Day 2 800m 2:51.99 19th · 1st on team 106.0 -0.043
2018-05-02 WACC - Non-Varsity Championships 800m 2:42.27 1st · 1st on team 112.1 -0.044 SR RSR
2018-03-24 Castro Valley Invitational pv SCR -0.037
2018-03-21 WACC Center Meet (Ala, Arr, BHS, SLZ, CV) 800m 2:44.41 1st · 1st on team 111.8 -0.037 SR RSR
2018-03-17 San Leandro Invitation pv DNS -0.043

2017 TF 115.4

Castro Valley (CA) · Grade 9

Date Meet Event Result Place Rating Difficulty PR/SR Flags
2017-05-06 WACC Non Varsity Championship pv 6-00.00 -0.035
2017-05-06 WACC Non Varsity Championship 3200m 12:48.61 2nd · 2nd on team 115.8 -0.035 ★PR SR
2017-05-06 WACC Non Varsity Championship 1600m 5:54.2 3rd · 3rd on team 115.9 -0.035
2017-04-22 Northern California Frosh/Soph Championships pv 6-06.00 -0.048
2017-04-15 Bearcat Invitational 1600m 5:58.13 7th · 1st on team 113.4 -0.045
2017-03-29 WACC League Meet Alameda, BOD vs CV 1600m 5:46.08 1st · 1st on team 118.5 -0.037 SR RSR
2017-03-29 WACC League Meet Alameda, BOD vs CV 800m 2:40.48 2nd · 2nd on team 113.7 -0.037 SR
2017-03-22 WACC LEACUE MEET CASTRO VALLEY, HAYWARD, SAN LEANDRO pv DNS -0.043
2017-03-22 WACC LEACUE MEET CASTRO VALLEY, HAYWARD, SAN LEANDRO 3200m 12:51.37 3rd · 3rd on team 114.8 -0.043 PR SR RSR
2017-03-22 WACC LEACUE MEET CASTRO VALLEY, HAYWARD, SAN LEANDRO 1600m 5:53.4 2nd · 2nd on team 115.7 -0.043 SR RSR

2016 TF 128.0

Mount Diablo Heat (CA) · Grade 8

Date Meet Event Result Place Rating Difficulty PR/SR Flags
2016-06-12 USATF Pacific Association Youth Championship 800m 2:39.83 17th · 1st on team 123.4 -0.043
2016-06-12 USATF Pacific Association Youth Championship 3000m 11:37.7 8th · 3rd on team 127.8 -0.043
2016-06-12 USATF Pacific Association Youth Championship 1500m 5:21.26 13th · 2nd on team 127.6 -0.043 SR
2016-05-25 2016 SACMAL Championships 800m 2:38.23 2nd · 2nd on team 125.1 -0.039 ★PR SR
2016-05-25 2016 SACMAL Championships 1600m 5:33.24 1st · 1st on team 132.7 -0.039 ★PR SR
2016-05-15 3M USATF Youth T&F Meet 3000m 11:06.67 4th · 2nd on team 134.3 -0.040 ★PR SR RSR
2016-05-15 3M USATF Youth T&F Meet 800m 2:38.6 16th · 3rd on team 124.9 -0.040 PR SR

2015 TF 129.8

Castro Valley Track (CA) · Grade 7

Date Meet Event Result Place Rating Difficulty PR/SR Flags
2015-06-21 USATF Pacific Association Junior Olympic Championships 3000m 11:22.73 10th · 1st on team 130.8 -0.039 PR SR
2015-06-21 USATF Pacific Association Junior Olympic Championships 1500m 5:11.12 12th · 1st on team 132.7 -0.039 ★PR SR RSR
2015-05-31 PAC (Pacific Association Youth Champions 3000m 11:36.22 12th · 1st on team 129.1 -0.032
2015-05-31 PAC (Pacific Association Youth Champions 1500m 5:21.06 23rd · 1st on team 129.4 -0.032 PR SR
2015-05-16 3M Track Club Track and Field Invitation 3000m 11:40.22 7th · 2nd on team 127.6 -0.040
2015-05-02 Running Rebels/Top Pacers Invitational 3000m 11:33.97 5th · 1st on team 127.4 -0.047
2015-04-18 Shor/Sheppard Invitational 3000m 11:27.23 4th · 1st on team 130.4 -0.036 SR
2015-04-18 Shor/Sheppard Invitational 800m 3:04.23 23rd · 4th on team -0.036 SR
2015-03-28 Contra Costa Cheetahs 3000m 11:32.37 1st · 1st on team 131.0 -0.030 SR RSR
2015-03-21 RPM Legacy 1500m 5:22.32 5th · 1st on team 129.4 -0.030 SR RSR

2014 TF 125.9

Castro Valley Track (CA) · Grade 6

Date Meet Event Result Place Rating Difficulty PR/SR Flags
2014-07-11 California Games 1500m 5:33.13 1st · 1st on team 124.3 -0.037
2014-07-11 California Games 3000m 11:45.98 2nd · 1st on team 126.6 -0.037
2014-06-20 USATF Pacific Assoc. Junior Olympics (Top 8) 3000m 11:51.22 3rd · 1st on team 125.1 -0.038
2014-06-20 USATF Pacific Assoc. Junior Olympics (Top 8) 1500m 5:24.62 4th · 1st on team 127.1 -0.038 SR
2014-05-21 sacmal 800m 2:45.66 4th · 2nd on team 119.5 -0.039 SR
2014-05-21 sacmal 1600m 5:43.61 3rd · 1st on team 129.2 -0.039 PR SR
2014-05-18 3M Invitational 3000m 11:28.23 1st · 1st on team 129.4 -0.040 SR RSR
2014-05-18 3M Invitational 1500m 5:26.19 2nd · 1st on team 126.6 -0.040 SR
2014-04-26 Revolution Express TC 1500m 5:28.64 3rd · 1st on team 125.8 -0.032 SR RSR

2013 TF 128.5

Castro Valley Track (CA) · Grade 5

Date Meet Event Result Place Rating Difficulty PR/SR Flags
2013-07-12 Track City Classic 1500m 5:24.09 13th · 2nd on team 101.2 -0.039
2013-07-12 Track City Classic 3000m 11:30.14 7th · 2nd on team 102.4 -0.039
2013-07-06 Region 14 Junior Olympics T&F (2-day) 3000m 11:50.2 7th · 2nd on team 99.1 -0.043
2013-06-21 Pacific Association Junior Olympics (3-day) 3000m 11:24.77 8th · 1st on team 141.4 -0.034 PR ★R SR RSR
2013-06-21 Pacific Association Junior Olympics (3-day) 1500m 5:21.73 14th · 2nd on team 141.0 -0.034 PR SR
2013-06-08 Pacific Association Youth Championship (PAC) - 2-day meet 1500m 5:28.05 15th · 1st on team 138.9 -0.032 PR R SR RSR
2013-06-08 Pacific Association Youth Championship (PAC) - 2-day meet 3000m 11:58.01 6th · 1st on team 135.6 -0.032
2013-05-18 3M Track Club 3000m 11:41.76 8th · 2nd on team 137.5 -0.040 R RSR
2013-05-18 3M Track Club 1500m 5:36.1 10th · 2nd on team 134.4 -0.040 PR SR
2013-05-04 Hercules / Running Rebels (2-day) 3000m 11:41.3 5th · 2nd on team 136.6 -0.047
2013-04-27 Revolution Express Track Club 800m 2:42.49 7th · 1st on team 137.3 -0.032 PR R SR RSR
2013-04-06 Sacramento Speed Showcase 3000m 11:40.02 7th · 2nd on team 136.7 -0.042 PR R SR RSR

2012 TF 126.5

Castro Valley Track (CA) · Grade 4

Date Meet Event Result Place Rating Difficulty PR/SR Flags
2012-07-06 USATF Region 14 Junior Olympic Championships 1500m 5:39.39 4th · 1st on team 132.7 -0.040 R RSR
2012-07-06 USATF Region 14 Junior Olympic Championships 800m 2:49.65 6th · 1st on team 130.1 -0.040
2012-06-16 USATF Region 14 Youth Multi Championships 1500m 5:39.39 3rd · 1st on team 132.5 -0.041 PR R SR RSR
2012-06-16 USATF Region 14 Youth Multi Championships 800m 2:49.65 6th · 1st on team 129.9 -0.041 PR SR
2012-05-26 Central Valley Roadrunners Track Club 1500m 5:50.07 4th · 1st on team 129.1 -0.036 PR R SR RSR
2012-05-19 3M Track Meet 800m 2:56.69 8th · 1st on team 124.9 -0.039 PR R SR RSR
2012-05-05 Hercules Running Rebels / Top Pacers Invitational 1500m 6:08.13 4th · 1st on team 121.6 -0.047 PR R SR RSR
2012-04-21 Shor / Sheppard Classic 800m 3:19.2 9th · 1st on team 111.2 -0.036 PR R SR RSR